Terminal Aerodrome Forecast
Issued by NWS

Home | Current Version | Previous Version | Text Only | Print | Product List | Glossary On
Versions: 1 2 3 4 5 6 7 8 9 10 11 12 13 14 15 16
000
FTUS46 KLOX 281127
TAFWJF
TAF
KWJF 281127Z 2812/2912 VRB05KT P6SM SKC
     FM281800 23007KT P6SM SKC
     FM282100 23012KT P6SM SKC
     FM282300 24018G25KT P6SM SKC
     FM290200 24012KT P6SM SKC=

USA.gov is the U.S. government's official web portal to all federal, state and local government web resources and services.